Create Tblcommutelog Verified Points Advance Search
| # | Trip ID | Id Commuter | Trip Date | Trip Num | Current Lat | Current Lng | Delta Distance | Current Time | Activity | Activity Confidence | Current Speed | |
|---|---|---|---|---|---|---|---|---|---|---|---|---|
| 69621 | 260113_786880_16464305_0630 | 786880 | (not set) | (not set) | 38.932806266706 | -77.215185976243 | 7.4514 | 2026-01-13 06:37:52 | in_vehicle | 100 | 12.771911629279 | |
| 69622 | 260113_789839_16660114_0550 | 789839 | (not set) | (not set) | 38.836333515833 | -77.092396556889 | 36.9509 | 2026-01-13 06:37:54 | in_vehicle | 100 | 15.226157161122 | |
| 69623 | 260113_789839_16660114_0550 | 789839 | (not set) | (not set) | 38.836333515833 | -77.092396556889 | 36.9509 | 2026-01-13 06:37:54 | in_vehicle | 100 | 15.226157161122 | |
| 69624 | 260113_746083_16423284_0635 | 746083 | (not set) | (not set) | 38.707920477503 | -77.211767525394 | 0.6797 | 2026-01-13 06:37:54 | unknown | 100 | 8.8066734020582 | |
| 69625 | 260113_765830_16503560_0630 | 765830 | (not set) | (not set) | 38.89958683405 | -77.182919550759 | 2.8174 | 2026-01-13 06:37:55 | in_vehicle | 100 | 8.0914105876778 | |
| 69626 | 260113_765830_16503560_0630 | 765830 | (not set) | (not set) | 38.89958683405 | -77.182919550759 | 2.8174 | 2026-01-13 06:37:55 | in_vehicle | 100 | 8.0914105876778 | |
| 69627 | 260113_769092_16489920_0631 | 769092 | (not set) | (not set) | 38.846814210007 | -77.42964155931 | 8.5433 | 2026-01-13 06:37:55 | in_vehicle | 100 | 15.445206398026 | |
| 69628 | 260113_729454_6428116_0637 | 729454 | (not set) | (not set) | 38.9702293 | -77.4359364 | 0 | 2026-01-13 06:37:56 | still | 100 | 12.673562992302 | |
| 69629 | 260113_788084_16449863_0627 | 788084 | (not set) | (not set) | 39.398193851157 | -76.430262904936 | 8.5875 | 2026-01-13 06:37:55 | in_vehicle | 100 | 13.688342110204 | |
| 69630 | 260113_729454_6428116_0637 | 729454 | (not set) | (not set) | 38.9700978 | -77.4358065 | 0 | 2026-01-13 06:37:57 | still | 100 | 12.803204377408 | |
| 69631 | 260113_783292_6437402_0631 | 783292 | (not set) | (not set) | 38.883994337858 | -77.151269633774 | 4.471 | 2026-01-13 06:37:56 | in_vehicle | 100 | 10.769175749014 | |
| 69632 | 260113_783292_6437402_0631 | 783292 | (not set) | (not set) | 38.883994337858 | -77.151269633774 | 4.471 | 2026-01-13 06:37:56 | in_vehicle | 100 | 10.769175749014 | |
| 69633 | 260113_729454_6428116_0637 | 729454 | (not set) | (not set) | 38.9700978 | -77.4358065 | 0 | 2026-01-13 06:37:57 | still | 100 | 12.803204377408 | |
| 69634 | 260113_788220_16489920_0625 | 788220 | (not set) | (not set) | 38.846872540798 | -77.42923480273 | 9.9684 | 2026-01-13 06:37:56 | in_vehicle | 100 | 15.458617575796 | |
| 69635 | 260113_788220_16489920_0625 | 788220 | (not set) | (not set) | 38.846872540798 | -77.42923480273 | 9.9684 | 2026-01-13 06:37:56 | in_vehicle | 100 | 15.458617575796 | |
| 69636 | 260113_789860_16489920_0629 | 789860 | (not set) | (not set) | 38.846922063471 | -77.428864506931 | 9.8533 | 2026-01-13 06:37:57 | in_vehicle | 100 | 15.440736005436 | |
| 69637 | 260113_789579_16464305_0623 | 789579 | (not set) | (not set) | 38.955212749378 | -77.405085144776 | 4.5912 | 2026-01-13 06:37:56 | still | 33 | -0.44703925898772 | |
| 69638 | 260113_789579_16464305_0623 | 789579 | (not set) | (not set) | 38.955212749378 | -77.405085144776 | 6.9735 | 2026-01-13 06:37:56 | still | 33 | -0.44703925898772 | |
| 69639 | 260113_786113_16505268_0621 | 786113 | (not set) | (not set) | 38.879886410595 | -77.240333373889 | 11.8488 | 2026-01-13 06:37:57 | in_vehicle | 100 | 15.056282242707 | |
| 69640 | 260113_788116_16505268_0631 | 788116 | (not set) | (not set) | 39.008904376092 | -77.465423425687 | 2.1301 | 2026-01-13 06:37:57 | in_vehicle | 100 | 10.787057319374 |